createdAt,value
2023-03-06T00:01:09.958Z,99617.44
2023-03-06T00:03:38.428Z,99616.59
2023-03-06T00:06:09.258Z,99619.28
2023-03-06T00:08:37.521Z,99613.16
2023-03-06T00:11:07.232Z,99607.94
2023-03-06T00:13:35.448Z,99609.72
2023-03-06T00:16:03.745Z,99597.47
2023-03-06T00:18:31.945Z,99611.53
2023-03-06T00:21:00.268Z,99605.41
2023-03-06T00:23:28.965Z,99597.53
2023-03-06T00:25:57.183Z,99594.88
2023-03-06T00:28:27.250Z,99596.69
2023-03-06T00:30:55.724Z,99598.44
2023-03-06T00:33:23.867Z,99591.41
2023-03-06T00:35:55.009Z,99597.59
2023-03-06T00:39:29.900Z,99596.75
2023-03-06T00:41:58.398Z,99589.75
2023-03-06T00:44:29.531Z,99597.66
2023-03-06T00:46:57.649Z,99587.13
2023-03-06T00:49:29.027Z,99588.88
2023-03-06T00:51:57.397Z,99584.53
2023-03-06T00:54:26.182Z,99576.59
2023-03-06T00:56:59.037Z,99576.63
2023-03-06T00:59:27.827Z,99573.06
2023-03-06T01:01:56.080Z,99573.94
2023-03-06T01:04:24.574Z,99567.78
2023-03-06T01:06:55.016Z,99567.72
2023-03-06T01:09:25.800Z,99568.56
2023-03-06T01:11:55.306Z,99552.72
2023-03-06T01:14:25.371Z,99553.59
2023-03-06T01:16:53.774Z,99554.41
2023-03-06T01:19:21.976Z,99542.06
2023-03-06T01:21:52.451Z,99543.88
2023-03-06T01:24:20.540Z,99540.28
2023-03-06T01:26:48.788Z,99535.00
2023-03-06T01:29:17.177Z,99528.91
2023-03-06T01:31:46.677Z,99519.16
2023-03-06T01:34:15.055Z,99511.31
2023-03-06T01:36:43.172Z,99514.81
2023-03-06T01:39:11.815Z,99510.47
2023-03-06T01:41:42.828Z,99513.09
2023-03-06T01:44:13.680Z,99496.50
2023-03-06T01:46:43.176Z,99500.94
2023-03-06T01:49:22.035Z,99495.66
2023-03-06T01:51:54.300Z,99492.09
2023-03-06T01:54:27.152Z,99495.66
2023-03-06T01:57:00.388Z,99498.28
2023-03-06T01:59:30.069Z,99499.16
2023-03-06T02:02:01.825Z,99482.50
2023-03-06T02:04:31.970Z,99486.88
2023-03-06T02:07:05.911Z,99480.75
2023-03-06T02:09:36.630Z,99482.44
2023-03-06T02:12:09.407Z,99478.09
2023-03-06T02:14:38.536Z,99480.72
2023-03-06T02:17:08.317Z,99474.53
2023-03-06T02:19:57.343Z,99483.28
2023-03-06T02:22:32.182Z,99469.28
2023-03-06T02:25:09.308Z,99478.94
2023-03-06T02:27:39.104Z,99472.81
2023-03-06T02:30:08.688Z,99462.28
2023-03-06T02:32:36.998Z,99463.13
2023-03-06T02:35:07.156Z,99454.34
2023-03-06T02:37:35.398Z,99454.34
2023-03-06T02:40:12.456Z,99456.94
2023-03-06T02:42:47.194Z,99456.13
2023-03-06T02:45:20.322Z,99456.16
2023-03-06T02:47:48.546Z,99451.75
2023-03-06T02:50:17.119Z,99452.63
2023-03-06T02:52:48.916Z,99441.19
2023-03-06T02:55:19.648Z,99440.34
2023-03-06T02:57:49.255Z,99437.75
2023-03-06T03:00:20.847Z,99442.97
2023-03-06T03:02:49.341Z,99433.31
2023-03-06T03:05:17.620Z,99442.09
2023-03-06T03:07:49.912Z,99436.84
2023-03-06T03:10:19.602Z,99435.06
2023-03-06T03:12:50.476Z,99430.72
2023-03-06T03:15:19.397Z,99426.34
2023-03-06T03:17:48.012Z,99430.72
2023-03-06T03:20:18.861Z,99428.09
2023-03-06T03:22:49.386Z,99426.34
2023-03-06T03:25:17.631Z,99422.00
2023-03-06T03:27:46.601Z,99419.38
2023-03-06T03:30:16.882Z,99420.16
2023-03-06T03:32:47.344Z,99416.69
2023-03-06T03:35:15.683Z,99415.78
2023-03-06T03:37:44.276Z,99417.56
2023-03-06T03:40:13.758Z,99416.72
2023-03-06T03:42:42.272Z,99419.38
2023-03-06T03:45:12.164Z,99419.38
2023-03-06T03:47:43.874Z,99421.16
2023-03-06T03:50:13.957Z,99422.03
2023-03-06T03:52:43.676Z,99413.25
2023-03-06T03:55:14.052Z,99409.78
2023-03-06T03:57:44.320Z,99408.03
2023-03-06T04:00:16.586Z,99408.03
2023-03-06T04:02:56.799Z,99403.59
2023-03-06T04:05:31.220Z,99401.84
2023-03-06T04:08:18.270Z,99396.53
2023-03-06T04:10:48.082Z,99394.81
2023-03-06T04:13:18.240Z,99389.47
2023-03-06T04:15:47.493Z,99393.00
2023-03-06T04:18:17.331Z,99393.00
2023-03-06T04:20:47.497Z,99384.22
2023-03-06T04:23:16.888Z,99381.56
2023-03-06T04:25:46.289Z,99375.47
2023-03-06T04:28:15.545Z,99382.38
2023-03-06T04:30:44.192Z,99380.63
2023-03-06T04:33:13.490Z,99370.16
2023-03-06T04:35:44.769Z,99368.44
2023-03-06T04:38:19.461Z,99364.06
2023-03-06T04:40:49.759Z,99369.44
2023-03-06T04:43:18.504Z,99362.47
2023-03-06T04:45:49.140Z,99363.34
2023-03-06T04:48:19.203Z,99370.41
2023-03-06T04:50:48.849Z,99362.44
2023-03-06T04:53:19.742Z,99357.22
2023-03-06T04:55:48.158Z,99359.00
2023-03-06T04:58:17.119Z,99361.63
2023-03-06T05:00:45.471Z,99350.28
2023-03-06T05:03:16.057Z,99366.94
2023-03-06T05:05:44.234Z,99361.69
2023-03-06T05:08:16.777Z,99355.63
2023-03-06T05:10:46.314Z,99360.00
2023-03-06T05:13:14.763Z,99361.81
2023-03-06T05:15:45.268Z,99353.06
2023-03-06T05:18:13.746Z,99353.06
2023-03-06T05:20:41.988Z,99349.56
2023-03-06T05:23:12.898Z,99350.53
2023-03-06T05:25:43.203Z,99353.16
2023-03-06T05:28:11.787Z,99347.06
2023-03-06T05:30:42.963Z,99340.06
2023-03-06T05:35:59.317Z,99347.13
2023-03-06T05:40:30.438Z,99347.19
2023-03-06T05:43:00.943Z,99346.31
2023-03-06T05:45:29.112Z,99344.56
2023-03-06T05:47:57.365Z,99345.50
2023-03-06T05:50:25.574Z,99344.53
2023-03-06T05:52:54.359Z,99341.06
2023-03-06T05:55:24.140Z,99341.94
2023-03-06T05:57:55.079Z,99339.34
2023-03-06T06:00:24.660Z,99344.56
2023-03-06T06:02:53.065Z,99342.81
2023-03-06T06:05:21.746Z,99338.44
2023-03-06T06:07:50.209Z,99339.31
2023-03-06T06:10:18.787Z,99337.53
2023-03-06T06:12:49.933Z,99338.44
2023-03-06T06:15:19.775Z,99341.03
2023-03-06T06:17:48.467Z,99341.03
2023-03-06T06:20:17.322Z,99348.91
2023-03-06T06:22:45.996Z,99350.72
2023-03-06T06:25:14.433Z,99346.28
2023-03-06T06:27:43.134Z,99341.94
2023-03-06T06:30:13.732Z,99353.34
2023-03-06T06:32:43.621Z,99346.31
2023-03-06T06:35:11.789Z,99348.91
2023-03-06T06:37:40.365Z,99348.84
2023-03-06T06:40:10.028Z,99349.72
2023-03-06T06:42:40.300Z,99353.16
2023-03-06T06:45:12.489Z,99354.00
2023-03-06T06:47:41.875Z,99350.47
2023-03-06T06:50:14.671Z,99353.94
2023-03-06T06:52:42.970Z,99355.63
2023-03-06T06:55:15.455Z,99353.88
2023-03-06T06:57:44.605Z,99348.47
2023-03-06T07:00:15.039Z,99349.31
2023-03-06T07:02:43.535Z,99355.25
2023-03-06T07:05:13.581Z,99353.34
2023-03-06T07:07:45.078Z,99350.56
2023-03-06T07:10:16.077Z,99357.47
2023-03-06T07:12:45.161Z,99358.25
2023-03-06T07:15:15.155Z,99359.81
2023-03-06T07:17:43.570Z,99363.91
2023-03-06T07:20:13.935Z,99359.31
2023-03-06T07:22:50.712Z,99355.78
2023-03-06T07:25:20.251Z,99353.81
2023-03-06T07:27:53.354Z,99355.09
2023-03-06T07:30:23.545Z,99352.63
2023-03-06T07:32:54.424Z,99351.53
2023-03-06T07:35:25.474Z,99359.13
2023-03-06T07:37:55.824Z,99345.84
2023-03-06T07:40:27.380Z,99349.19
2023-03-06T07:43:12.921Z,99348.59
2023-03-06T07:45:57.525Z,99348.06
2023-03-06T07:48:28.993Z,99354.22
2023-03-06T07:51:00.745Z,99355.84
2023-03-06T07:53:29.947Z,99356.91
2023-03-06T07:56:00.294Z,99345.66
2023-03-06T07:58:28.676Z,99352.63
2023-03-06T08:00:56.858Z,99351.97
2023-03-06T08:03:24.986Z,99355.38
2023-03-06T08:05:53.470Z,99357.13
2023-03-06T08:08:22.988Z,99366.78
2023-03-06T08:10:51.605Z,99362.25
2023-03-06T08:13:19.796Z,99369.38
2023-03-06T08:15:51.396Z,99370.22
2023-03-06T08:18:19.655Z,99375.53
2023-03-06T08:20:50.431Z,99370.09
2023-03-06T08:23:18.748Z,99378.81
2023-03-06T08:25:57.016Z,99375.31
2023-03-06T08:28:25.167Z,99376.19
2023-03-06T08:30:56.141Z,99384.09
2023-03-06T08:33:25.246Z,99377.84
2023-03-06T08:35:53.860Z,99383.09
2023-03-06T08:38:24.637Z,99389.22
2023-03-06T08:40:54.811Z,99388.06
2023-03-06T08:43:23.105Z,99390.69
2023-03-06T08:45:53.557Z,99376.31
2023-03-06T08:48:21.849Z,99391.50
2023-03-06T08:50:50.747Z,99380.25
2023-03-06T08:53:19.286Z,99399.66
2023-03-06T08:55:50.103Z,99398.28
2023-03-06T08:58:19.652Z,99397.59
2023-03-06T09:00:48.226Z,99393.16
2023-03-06T09:03:16.467Z,99396.63
2023-03-06T09:05:44.726Z,99398.25
2023-03-06T09:08:12.869Z,99391.97
2023-03-06T09:10:41.104Z,99389.13
2023-03-06T09:13:09.536Z,99390.75
2023-03-06T09:15:39.755Z,99395.00
2023-03-06T09:18:08.504Z,99393.50
2023-03-06T09:20:36.747Z,99385.63
2023-03-06T09:23:04.976Z,99400.31
2023-03-06T09:25:33.153Z,99404.38
2023-03-06T09:28:11.077Z,99395.44
2023-03-06T09:30:42.537Z,99394.78
2023-03-06T09:33:10.788Z,99405.19
2023-03-06T09:35:43.831Z,99397.66
2023-03-06T09:38:14.508Z,99404.28
2023-03-06T09:40:53.470Z,99401.56
2023-03-06T09:43:26.716Z,99401.03
2023-03-06T09:45:56.255Z,99405.00
2023-03-06T09:48:36.125Z,99404.91
2023-03-06T09:51:12.675Z,99399.44
2023-03-06T09:53:59.051Z,99397.78
2023-03-06T09:56:32.094Z,99383.94
2023-03-06T09:59:08.620Z,99396.19
2023-03-06T10:01:41.333Z,99395.81
2023-03-06T10:04:31.770Z,99395.53
2023-03-06T10:07:06.224Z,99394.69
2023-03-06T10:09:44.296Z,99395.34
2023-03-06T10:12:24.537Z,99396.97
2023-03-06T10:15:13.181Z,99402.97
2023-03-06T10:17:44.248Z,99397.44
2023-03-06T10:20:24.794Z,99407.47
2023-03-06T10:23:16.317Z,99409.31
2023-03-06T10:25:52.680Z,99407.63
2023-03-06T10:28:29.681Z,99401.97
2023-03-06T10:31:13.428Z,99400.38
2023-03-06T10:33:54.293Z,99402.63
2023-03-06T10:36:27.085Z,99396.66
2023-03-06T10:41:39.511Z,99398.16
2023-03-06T10:44:25.224Z,99393.94
2023-03-06T10:46:54.954Z,99397.28
2023-03-06T10:49:30.125Z,99394.41
2023-03-06T10:52:01.829Z,99394.81
2023-03-06T10:54:37.020Z,99392.19
2023-03-06T10:57:32.148Z,99394.41
2023-03-06T11:00:04.453Z,99385.97
2023-03-06T11:02:36.441Z,99386.03
2023-03-06T11:05:06.846Z,99395.75
2023-03-06T11:07:36.421Z,99392.28
2023-03-06T11:10:19.178Z,99383.59
2023-03-06T11:13:00.473Z,99388.16
2023-03-06T11:15:29.912Z,99380.16
2023-03-06T11:18:01.518Z,99395.41
2023-03-06T11:20:50.107Z,99380.72
2023-03-06T11:23:21.408Z,99378.28
2023-03-06T11:25:53.917Z,99385.50
2023-03-06T11:28:29.104Z,99381.53
2023-03-06T11:31:03.202Z,99381.63
2023-03-06T11:33:38.732Z,99376.81
2023-03-06T11:36:14.510Z,99369.59
2023-03-06T11:38:49.789Z,99381.81
2023-03-06T11:41:27.955Z,99375.63
2023-03-06T11:44:04.586Z,99363.06
2023-03-06T11:46:38.719Z,99369.59
2023-03-06T11:49:18.259Z,99359.81
2023-03-06T11:51:53.767Z,99362.47
2023-03-06T11:54:22.300Z,99354.75
2023-03-06T11:56:56.273Z,99355.06
2023-03-06T11:59:48.395Z,99352.31
2023-03-06T12:02:30.399Z,99357.19
2023-03-06T12:05:13.388Z,99355.31
2023-03-06T12:07:52.464Z,99346.69
2023-03-06T12:10:27.944Z,99340.50
2023-03-06T12:13:16.753Z,99345.28
2023-03-06T12:16:03.076Z,99345.03
2023-03-06T12:18:43.385Z,99341.19
2023-03-06T12:21:19.861Z,99336.81
2023-03-06T12:24:04.893Z,99331.63
2023-03-06T12:26:51.187Z,99336.56
2023-03-06T12:30:00.552Z,99335.88
2023-03-06T12:32:49.932Z,99340.88
2023-03-06T12:35:31.154Z,99332.34
2023-03-06T12:38:09.453Z,99323.22
2023-03-06T12:40:52.414Z,99320.69
2023-03-06T12:43:47.251Z,99327.34
2023-03-06T12:46:18.570Z,99316.78
2023-03-06T12:48:59.253Z,99322.72
2023-03-06T12:51:30.574Z,99309.38
2023-03-06T12:54:00.500Z,99308.72
2023-03-06T12:56:31.010Z,99308.66
2023-03-06T12:59:02.613Z,99315.78
2023-03-06T13:01:55.207Z,99311.91
2023-03-06T13:04:42.632Z,99298.47
2023-03-06T13:07:31.310Z,99312.13
2023-03-06T13:10:12.291Z,99309.47
2023-03-06T13:12:57.267Z,99307.09
2023-03-06T13:15:37.937Z,99306.09
2023-03-06T13:18:58.336Z,99309.91
2023-03-06T13:22:03.278Z,99294.59
2023-03-06T13:24:35.673Z,99299.97
2023-03-06T13:27:09.080Z,99295.22
2023-03-06T13:30:21.062Z,99296.94
2023-03-06T13:32:52.758Z,99292.22
2023-03-06T13:35:55.267Z,99289.31
2023-03-06T13:38:38.075Z,99285.19
2023-03-06T13:41:43.555Z,99288.44
2023-03-06T13:44:47.511Z,99282.84
2023-03-06T13:48:02.887Z,99281.63
2023-03-06T13:50:35.719Z,99280.56
2023-03-06T13:53:40.739Z,99279.53
2023-03-06T13:56:32.694Z,99281.38
2023-03-06T13:59:33.079Z,99272.47
2023-03-06T14:02:19.366Z,99275.22
2023-03-06T14:04:58.711Z,99275.91
2023-03-06T14:07:30.035Z,99273.06
2023-03-06T14:10:10.226Z,99269.47
2023-03-06T14:12:44.464Z,99271.38
2023-03-06T14:15:20.060Z,99273.28
2023-03-06T14:17:57.673Z,99266.63
2023-03-06T14:20:35.061Z,99257.38
2023-03-06T14:23:26.969Z,99263.94
2023-03-06T14:26:03.639Z,99246.53
2023-03-06T14:28:33.211Z,99252.50
2023-03-06T14:31:04.310Z,99246.41
2023-03-06T14:33:38.070Z,99249.56
2023-03-06T14:36:09.018Z,99255.94
2023-03-06T14:38:46.677Z,99255.25
2023-03-06T14:41:24.448Z,99250.88
2023-03-06T14:43:53.366Z,99255.25
2023-03-06T14:46:23.683Z,99246.41
2023-03-06T14:48:52.216Z,99246.38
2023-03-06T14:51:25.474Z,99244.53
2023-03-06T14:54:03.562Z,99253.09
2023-03-06T14:56:37.528Z,99245.88
2023-03-06T14:59:09.346Z,99248.63
2023-03-06T15:01:39.807Z,99237.41
2023-03-06T15:04:21.351Z,99250.09
2023-03-06T15:06:51.723Z,99245.44
2023-03-06T15:09:25.421Z,99249.31
2023-03-06T15:11:56.366Z,99253.31
2023-03-06T15:14:32.126Z,99259.94
2023-03-06T15:17:21.684Z,99261.00
2023-03-06T15:19:51.587Z,99254.25
2023-03-06T15:22:40.016Z,99266.69
2023-03-06T15:25:26.672Z,99260.75
2023-03-06T15:27:57.727Z,99259.19
2023-03-06T15:30:29.315Z,99264.50
2023-03-06T15:33:25.684Z,99261.13
2023-03-06T15:35:57.215Z,99249.84
2023-03-06T15:38:33.911Z,99252.66
2023-03-06T15:42:39.809Z,99258.00
2023-03-06T15:45:16.377Z,99258.22
2023-03-06T15:47:45.091Z,99259.94
2023-03-06T15:50:18.784Z,99257.34
2023-03-06T15:52:47.840Z,99259.19
2023-03-06T15:55:23.582Z,99255.75
2023-03-06T15:57:55.506Z,99258.56
2023-03-06T16:00:28.621Z,99260.41
2023-03-06T16:02:56.823Z,99260.56
2023-03-06T16:05:25.354Z,99264.91
2023-03-06T16:07:53.953Z,99262.41
2023-03-06T16:10:24.240Z,99258.16
2023-03-06T16:12:57.128Z,99261.72
2023-03-06T16:15:28.957Z,99252.09
2023-03-06T16:17:57.350Z,99246.91
2023-03-06T16:20:28.029Z,99268.78
2023-03-06T16:22:59.126Z,99268.03
2023-03-06T16:25:29.034Z,99258.63
2023-03-06T16:27:59.834Z,99263.91
2023-03-06T16:30:29.722Z,99262.28
2023-03-06T16:32:58.197Z,99261.47
2023-03-06T16:35:27.734Z,99262.44
2023-03-06T16:37:55.936Z,99265.00
2023-03-06T16:40:27.255Z,99269.47
2023-03-06T16:42:56.071Z,99266.28
2023-03-06T16:45:25.858Z,99270.84
2023-03-06T16:47:54.519Z,99265.78
2023-03-06T16:50:26.463Z,99279.03
2023-03-06T16:52:55.994Z,99279.22
2023-03-06T16:55:25.473Z,99280.09
2023-03-06T16:57:54.752Z,99281.94
2023-03-06T17:00:28.179Z,99274.13
2023-03-06T17:02:57.459Z,99275.00
2023-03-06T17:05:25.809Z,99275.16
2023-03-06T17:07:54.213Z,99268.22
2023-03-06T17:10:26.227Z,99277.06
2023-03-06T17:12:57.022Z,99277.13
2023-03-06T17:15:26.556Z,99277.19
2023-03-06T17:17:55.818Z,99276.50
2023-03-06T17:20:24.389Z,99284.44
2023-03-06T17:22:52.897Z,99284.50
2023-03-06T17:25:21.284Z,99286.38
2023-03-06T17:27:49.616Z,99284.72
2023-03-06T17:30:17.929Z,99290.88
2023-03-06T17:32:47.713Z,99293.50
2023-03-06T17:35:16.442Z,99291.84
2023-03-06T17:37:44.956Z,99297.19
2023-03-06T17:40:15.532Z,99293.66
2023-03-06T17:42:43.752Z,99298.09
2023-03-06T17:45:12.845Z,99296.47
2023-03-06T17:47:41.199Z,99295.50
2023-03-06T17:50:12.354Z,99295.50
2023-03-06T17:52:40.912Z,99282.56
2023-03-06T17:55:10.051Z,99290.25
2023-03-06T17:57:38.258Z,99290.31
2023-03-06T18:00:08.755Z,99290.38
2023-03-06T18:02:45.354Z,99294.72
2023-03-06T18:05:20.728Z,99296.50
2023-03-06T18:07:48.877Z,99297.34
2023-03-06T18:10:17.612Z,99301.75
2023-03-06T18:12:45.806Z,99301.78
2023-03-06T18:15:14.194Z,99307.06
2023-03-06T18:17:42.550Z,99306.22
2023-03-06T18:20:12.172Z,99299.22
2023-03-06T18:22:41.817Z,99304.47
2023-03-06T18:25:12.608Z,99290.47
2023-03-06T18:27:40.734Z,99290.50
2023-03-06T18:30:10.444Z,99297.50
2023-03-06T18:32:39.197Z,99295.84
2023-03-06T18:35:09.262Z,99292.22
2023-03-06T18:37:37.424Z,99298.28
2023-03-06T18:40:11.278Z,99300.91
2023-03-06T18:42:39.610Z,99307.94
2023-03-06T18:45:09.451Z,99310.53
2023-03-06T18:47:37.795Z,99304.44
2023-03-06T18:50:07.523Z,99302.72
2023-03-06T18:52:36.095Z,99295.69
2023-03-06T18:55:07.588Z,99299.25
2023-03-06T18:57:37.986Z,99309.78
2023-03-06T19:00:07.813Z,99307.16
2023-03-06T19:02:38.514Z,99308.00
2023-03-06T19:05:12.941Z,99306.25
2023-03-06T19:07:41.219Z,99300.13
2023-03-06T19:10:10.961Z,99304.59
2023-03-06T19:12:40.636Z,99297.59
2023-03-06T19:15:10.264Z,99305.47
2023-03-06T19:17:41.438Z,99293.22
2023-03-06T19:20:11.267Z,99291.47
2023-03-06T19:22:41.880Z,99291.44
2023-03-06T19:25:11.521Z,99289.75
2023-03-06T19:27:44.813Z,99293.25
2023-03-06T19:30:14.459Z,99300.28
2023-03-06T19:32:46.111Z,99295.06
2023-03-06T19:35:14.759Z,99305.56
2023-03-06T19:37:43.172Z,99307.34
2023-03-06T19:40:14.661Z,99296.03
2023-03-06T19:42:46.907Z,99296.09
2023-03-06T19:45:15.321Z,99288.16
2023-03-06T19:47:43.559Z,99289.13
2023-03-06T19:50:14.486Z,99293.50
2023-03-06T19:52:42.917Z,99290.91
2023-03-06T19:55:12.275Z,99293.59
2023-03-06T19:57:40.480Z,99293.59
2023-03-06T20:00:14.438Z,99288.28
2023-03-06T20:02:43.550Z,99297.94
2023-03-06T20:05:11.921Z,99293.59
2023-03-06T20:07:40.637Z,99286.59
2023-03-06T20:10:10.210Z,99283.94
2023-03-06T20:12:38.436Z,99282.09
2023-03-06T20:15:08.178Z,99276.84
2023-03-06T20:17:40.499Z,99278.53
2023-03-06T20:20:10.656Z,99284.69
2023-03-06T20:22:39.080Z,99275.06
2023-03-06T20:25:08.325Z,99276.84
2023-03-06T20:27:37.028Z,99268.97
2023-03-06T20:30:09.655Z,99267.22
2023-03-06T20:32:39.845Z,99262.00
2023-03-06T20:35:09.586Z,99265.47
2023-03-06T20:37:41.208Z,99267.28
2023-03-06T20:43:40.774Z,99262.16
2023-03-06T20:46:09.321Z,99259.59
2023-03-06T20:48:38.064Z,99261.47
2023-03-06T20:51:08.331Z,99249.22
2023-03-06T20:53:36.724Z,99258.09
2023-03-06T20:56:05.663Z,99253.69
2023-03-06T20:58:36.118Z,99265.25
2023-03-06T21:01:07.978Z,99265.28
2023-03-06T21:03:38.535Z,99261.88
2023-03-06T21:06:09.188Z,99259.22
2023-03-06T21:08:37.743Z,99259.28
2023-03-06T21:11:06.426Z,99258.44
2023-03-06T21:13:37.157Z,99255.84
2023-03-06T21:16:08.343Z,99248.81
2023-03-06T21:18:37.042Z,99254.94
2023-03-06T21:21:07.415Z,99245.31
2023-03-06T21:23:35.836Z,99237.34
2023-03-06T21:26:04.396Z,99239.03
2023-03-06T21:28:33.703Z,99241.56
2023-03-06T21:31:03.067Z,99233.56
2023-03-06T21:33:32.712Z,99232.59
2023-03-06T21:36:01.315Z,99228.19
2023-03-06T21:38:30.452Z,99221.97
2023-03-06T21:41:09.123Z,99233.31
2023-03-06T21:43:37.470Z,99227.97
2023-03-06T21:46:06.143Z,99226.09
2023-03-06T21:48:36.669Z,99224.41
2023-03-06T21:51:12.982Z,99223.53
2023-03-06T21:53:43.711Z,99216.50
2023-03-06T21:56:17.142Z,99219.03
2023-03-06T21:58:45.753Z,99207.88
2023-03-06T22:01:18.108Z,99212.31
2023-03-06T22:03:48.150Z,99211.47
2023-03-06T22:06:18.537Z,99204.47
2023-03-06T22:08:47.219Z,99209.78
2023-03-06T22:11:17.897Z,99205.38
2023-03-06T22:13:47.998Z,99209.69
2023-03-06T22:16:20.923Z,99201.78
2023-03-06T22:18:52.559Z,99202.72
2023-03-06T22:21:22.992Z,99192.19
2023-03-06T22:23:54.413Z,99193.00
2023-03-06T22:26:22.628Z,99192.19
2023-03-06T22:28:51.325Z,99188.56
2023-03-06T22:31:23.831Z,99185.09
2023-03-06T22:33:54.467Z,99178.94
2023-03-06T22:36:24.076Z,99185.97
2023-03-06T22:38:56.814Z,99176.31
2023-03-06T22:41:26.977Z,99170.13
2023-03-06T22:43:57.149Z,99169.19
2023-03-06T22:46:26.519Z,99165.63
2023-03-06T22:48:57.881Z,99170.84
2023-03-06T22:51:27.611Z,99163.00
2023-03-06T22:53:55.897Z,99157.59
2023-03-06T22:56:26.862Z,99146.28
2023-03-06T22:58:55.412Z,99169.94
2023-03-06T23:01:28.465Z,99161.13
2023-03-06T23:03:59.804Z,99160.16
2023-03-06T23:06:30.243Z,99156.63
2023-03-06T23:09:04.214Z,99159.28
2023-03-06T23:11:33.180Z,99157.41
2023-03-06T23:14:20.821Z,99153.06
2023-03-06T23:17:07.920Z,99157.50
2023-03-06T23:19:55.964Z,99147.00
2023-03-06T23:22:43.335Z,99154.88
2023-03-06T23:25:30.620Z,99148.69
2023-03-06T23:27:58.964Z,99152.19
2023-03-06T23:30:27.603Z,99155.72
2023-03-06T23:32:58.061Z,99140.84
2023-03-06T23:35:27.707Z,99148.75
2023-03-06T23:37:55.985Z,99153.97
2023-03-06T23:40:24.469Z,99147.75
2023-03-06T23:42:53.076Z,99151.34
2023-03-06T23:45:21.949Z,99154.00
2023-03-06T23:47:50.357Z,99141.66
2023-03-06T23:50:18.975Z,99142.53
2023-03-06T23:52:48.582Z,99138.97
2023-03-06T23:55:17.165Z,99134.53
2023-03-06T23:57:48.449Z,99137.16
